Time;durP1;ratioP1;P1;durP2;ratioP2;P2;SDS_P1;SDS_P2;PMS_P1;PMS_P2;Temp;Humidity;BMP_temperature;BMP_pressure;BME280_temperature;BME280_humidity;BME280_pressure;Samples;Min_cycle;Max_cycle;Signal;HPM_P1;HPM_P2
2023/05/29 00:00:21;;;;;;;4.17;3.77;;;16.90;99.90;;;;;;5057318;28;20194;-80
2023/05/29 00:02:47;;;;;;;4.03;3.73;;;16.90;99.90;;;;;;5057110;28;20183;-82
2023/05/29 00:05:14;;;;;;;4.40;4.00;;;16.80;99.90;;;;;;5074461;28;20745;-82
2023/05/29 00:07:40;;;;;;;5.07;4.60;;;16.70;99.90;;;;;;5075308;28;20205;-81
2023/05/29 00:10:07;;;;;;;4.60;4.20;;;16.70;99.90;;;;;;5074934;28;20175;-80
2023/05/29 00:12:34;;;;;;;6.07;4.07;;;16.70;99.90;;;;;;5056886;28;20209;-81
2023/05/29 00:15:00;;;;;;;5.07;4.20;;;16.70;99.90;;;;;;5057447;28;20183;-80
2023/05/29 00:17:25;;;;;;;5.07;4.10;;;16.60;99.90;;;;;;5086605;28;20194;-80
2023/05/29 00:19:51;;;;;;;5.30;4.80;;;16.60;99.90;;;;;;5070299;28;20183;-79
2023/05/29 00:22:17;;;;;;;5.00;4.47;;;16.50;99.90;;;;;;5076834;28;20173;-80
2023/05/29 00:24:43;;;;;;;5.10;4.23;;;16.50;99.90;;;;;;5091619;28;20176;-82
2023/05/29 00:27:10;;;;;;;4.57;3.93;;;16.50;99.90;;;;;;5088332;28;20182;-81
2023/05/29 00:29:37;;;;;;;5.40;4.33;;;16.40;99.90;;;;;;5058313;28;20177;-82
2023/05/29 00:32:07;;;;;;;4.80;4.30;;;16.40;99.90;;;;;;5084198;28;20173;-80
2023/05/29 00:34:32;;;;;;;4.80;4.07;;;16.30;99.90;;;;;;5060721;28;20177;-83
2023/05/29 00:36:59;;;;;;;5.60;4.50;;;16.30;99.90;;;;;;5080845;28;20182;-80
2023/05/29 00:39:25;;;;;;;6.47;4.10;;;16.30;99.90;;;;;;5076458;28;20270;-82
2023/05/29 00:41:51;;;;;;;7.90;4.33;;;16.30;99.90;;;;;;5075106;28;20592;-81
2023/05/29 00:44:21;;;;;;;5.17;4.10;;;16.30;99.90;;;;;;5074607;28;20201;-82
2023/05/29 00:46:48;;;;;;;5.10;4.50;;;16.30;99.90;;;;;;5056023;28;20218;-84
2023/05/29 00:49:14;;;;;;;7.43;4.73;;;16.30;99.90;;;;;;5073986;28;20177;-80
2023/05/29 00:51:42;;;;;;;5.83;4.10;;;16.40;99.90;;;;;;5074511;28;20570;-83
2023/05/29 00:54:11;;;;;;;5.00;4.50;;;16.40;99.90;;;;;;5070875;28;20190;-82
2023/05/29 00:56:39;;;;;;;5.10;4.47;;;16.30;99.90;;;;;;5070805;28;20175;-79
2023/05/29 00:59:05;;;;;;;4.40;4.00;;;16.40;99.90;;;;;;5060585;28;20258;-80
2023/05/29 01:01:32;;;;;;;6.23;4.67;;;16.40;99.90;;;;;;5095880;28;20227;-79
2023/05/29 01:04:00;;;;;;;5.00;4.50;;;16.40;99.90;;;;;;5078142;28;20218;-81
2023/05/29 01:06:26;;;;;;;6.77;5.00;;;16.40;99.90;;;;;;5059529;28;20234;-83
2023/05/29 01:08:52;;;;;;;4.63;4.00;;;16.40;99.90;;;;;;5074939;28;20175;-80
2023/05/29 01:11:18;;;;;;;7.13;4.50;;;16.40;99.90;;;;;;5055925;28;20657;-81
2023/05/29 01:13:45;;;;;;;7.27;5.00;;;16.30;99.90;;;;;;5073823;28;20201;-80
2023/05/29 01:16:29;;;;;;;5.63;4.73;;;16.40;99.90;;;;;;5057674;28;20249;-80
2023/05/29 01:19:25;;;;;;;5.90;4.37;;;16.30;99.90;;;;;;5058823;28;20262;-80
2023/05/29 01:22:25;;;;;;;4.87;4.37;;;16.30;99.90;;;;;;5075308;28;20213;-79
2023/05/29 01:25:04;;;;;;;7.63;5.00;;;16.20;99.90;;;;;;5044156;28;20179;-80
2023/05/29 01:27:32;;;;;;;5.43;4.50;;;16.20;99.90;;;;;;5055446;28;20191;-80
2023/05/29 01:30:01;;;;;;;5.20;4.63;;;16.20;99.90;;;;;;5073469;28;20165;-80
2023/05/29 01:32:27;;;;;;;6.07;4.63;;;16.10;99.90;;;;;;5056133;28;20183;-80
2023/05/29 01:34:53;;;;;;;5.00;4.40;;;16.10;99.90;;;;;;5073922;28;20169;-80
2023/05/29 01:37:18;;;;;;;4.80;4.23;;;16.10;99.90;;;;;;5055407;28;20929;-79
2023/05/29 01:39:44;;;;;;;5.83;4.80;;;16.00;99.90;;;;;;5073387;28;20230;-79
2023/05/29 01:42:11;;;;;;;5.10;4.60;;;16.00;99.90;;;;;;5055728;28;20194;-79
2023/05/29 01:44:38;;;;;;;6.30;4.23;;;15.90;99.90;;;;;;5073766;28;20163;-80
2023/05/29 01:47:04;;;;;;;5.90;4.73;;;15.90;99.90;;;;;;5060838;28;20270;-79
2023/05/29 01:49:31;;;;;;;6.10;4.83;;;15.90;99.90;;;;;;5070286;28;20590;-81
2023/05/29 01:51:58;;;;;;;6.57;4.40;;;15.80;99.90;;;;;;5073879;28;20580;-81
2023/05/29 01:54:24;;;;;;;5.13;4.63;;;15.80;99.90;;;;;;5054946;28;20636;-80
2023/05/29 01:56:51;;;;;;;4.87;4.47;;;15.80;99.90;;;;;;5073203;28;20183;-80
2023/05/29 01:59:17;;;;;;;6.13;4.60;;;15.80;99.90;;;;;;5079227;28;20179;-83
2023/05/29 02:01:43;;;;;;;6.03;4.87;;;15.70;99.90;;;;;;5069407;28;20176;-80
2023/05/29 02:04:09;;;;;;;7.43;5.13;;;15.60;99.90;;;;;;5055770;28;20761;-82
2023/05/29 02:06:35;;;;;;;5.43;4.73;;;15.60;99.90;;;;;;5056698;28;20202;-79
2023/05/29 02:09:01;;;;;;;7.40;4.77;;;15.60;99.90;;;;;;5057477;28;20260;-79
2023/05/29 02:11:26;;;;;;;6.57;5.07;;;15.60;99.90;;;;;;5067378;28;20172;-80
2023/05/29 02:13:52;;;;;;;6.70;5.00;;;15.50;99.90;;;;;;5090996;28;20185;-81
2023/05/29 02:16:20;;;;;;;5.20;4.70;;;15.50;99.90;;;;;;5074985;28;20207;-80
2023/05/29 02:18:46;;;;;;;6.47;4.80;;;15.50;99.90;;;;;;5063585;28;20182;-83
2023/05/29 02:21:12;;;;;;;7.20;4.40;;;15.50;99.90;;;;;;5055204;28;20187;-79
2023/05/29 02:23:38;;;;;;;6.73;4.50;;;15.40;99.90;;;;;;5073015;28;20176;-80
2023/05/29 02:26:05;;;;;;;6.33;4.90;;;15.40;99.90;;;;;;5054890;28;20207;-81
2023/05/29 02:28:30;;;;;;;5.97;4.40;;;15.40;99.90;;;;;;5073295;28;20168;-81
2023/05/29 02:30:56;;;;;;;5.87;4.60;;;15.30;99.90;;;;;;5054799;28;20556;-80
2023/05/29 02:33:22;;;;;;;8.90;5.17;;;15.30;99.90;;;;;;5054536;28;20226;-80
2023/05/29 02:35:48;;;;;;;6.27;4.63;;;15.30;99.90;;;;;;5072525;28;20538;-82
2023/05/29 02:38:14;;;;;;;6.23;4.97;;;15.20;99.90;;;;;;5054380;28;20635;-81
2023/05/29 02:40:39;;;;;;;6.83;4.90;;;15.20;99.90;;;;;;5072832;28;20211;-82
2023/05/29 02:43:06;;;;;;;6.27;4.70;;;15.30;99.90;;;;;;5072640;28;20210;-81
2023/05/29 02:45:32;;;;;;;7.63;5.20;;;15.30;99.90;;;;;;5054288;28;20210;-81
2023/05/29 02:47:59;;;;;;;7.07;4.97;;;15.20;99.90;;;;;;5054210;28;20554;-81
2023/05/29 02:50:24;;;;;;;6.83;4.90;;;15.10;99.90;;;;;;5055232;28;20183;-81
2023/05/29 02:52:50;;;;;;;5.90;5.23;;;15.20;99.90;;;;;;5054824;28;20182;-81
2023/05/29 02:55:16;;;;;;;6.90;4.83;;;15.10;99.90;;;;;;5057545;28;20646;-81
2023/05/29 02:57:42;;;;;;;6.37;4.90;;;15.20;99.90;;;;;;5075806;28;20174;-81
2023/05/29 03:00:08;;;;;;;7.10;5.23;;;15.00;99.90;;;;;;5075252;28;20155;-81
2023/05/29 03:02:35;;;;;;;6.07;4.80;;;15.00;99.90;;;;;;5062055;28;20714;-81
2023/05/29 03:05:01;;;;;;;7.93;5.40;;;15.00;99.90;;;;;;5073322;28;20219;-80
2023/05/29 03:07:27;;;;;;;6.07;5.10;;;15.00;99.90;;;;;;5065563;28;20234;-80
2023/05/29 03:09:53;;;;;;;6.33;4.77;;;15.00;99.90;;;;;;5085408;28;20182;-81
2023/05/29 03:12:19;;;;;;;6.90;5.17;;;15.00;99.90;;;;;;5056622;28;20195;-81
2023/05/29 03:14:45;;;;;;;6.73;5.00;;;15.00;99.90;;;;;;5056521;28;20179;-82
2023/05/29 03:17:11;;;;;;;7.60;5.43;;;15.00;99.90;;;;;;5057953;28;20183;-80
2023/05/29 03:19:38;;;;;;;6.43;5.40;;;15.00;99.90;;;;;;5059029;28;20662;-81
2023/05/29 03:22:04;;;;;;;7.60;5.43;;;15.00;99.90;;;;;;5076004;28;20177;-81
2023/05/29 03:24:30;;;;;;;7.50;5.20;;;15.00;99.90;;;;;;5076345;28;20179;-80
2023/05/29 03:26:55;;;;;;;7.87;5.57;;;14.90;99.90;;;;;;5078527;28;20265;-81
2023/05/29 03:29:21;;;;;;;5.97;4.80;;;14.80;99.90;;;;;;5057959;28;20175;-82
2023/05/29 03:31:47;;;;;;;5.87;5.27;;;14.80;99.90;;;;;;5075959;28;20663;-82
2023/05/29 03:34:13;;;;;;;6.57;5.30;;;14.80;99.90;;;;;;5059016;28;20207;-82
2023/05/29 03:36:39;;;;;;;5.63;4.53;;;14.80;99.90;;;;;;5078713;28;20183;-80
2023/05/29 03:39:06;;;;;;;7.37;4.87;;;14.80;99.90;;;;;;5059352;28;20171;-81
2023/05/29 03:41:32;;;;;;;7.67;5.90;;;14.80;99.90;;;;;;5077605;28;20180;-80
2023/05/29 03:43:57;;;;;;;7.63;5.00;;;14.80;99.90;;;;;;5077991;28;20258;-79
2023/05/29 03:46:23;;;;;;;7.07;5.30;;;14.80;99.90;;;;;;5067002;28;20194;-81
2023/05/29 03:48:49;;;;;;;6.50;4.90;;;14.80;99.90;;;;;;5074631;28;20188;-82
2023/05/29 03:51:15;;;;;;;6.37;5.30;;;14.70;99.90;;;;;;5078242;28;20186;-82
2023/05/29 03:53:40;;;;;;;7.87;5.80;;;14.80;99.90;;;;;;5065841;28;20179;-82
2023/05/29 03:56:06;;;;;;;6.17;5.10;;;14.80;99.90;;;;;;5077396;28;20210;-79
2023/05/29 03:58:32;;;;;;;7.77;5.20;;;14.80;99.90;;;;;;5075155;28;20589;-80
2023/05/29 04:00:58;;;;;;;5.87;4.97;;;14.80;99.90;;;;;;5075217;28;20201;-80
2023/05/29 04:03:23;;;;;;;7.73;5.30;;;14.80;99.90;;;;;;5057754;28;20215;-81
2023/05/29 04:05:49;;;;;;;7.97;5.20;;;14.80;99.90;;;;;;5057163;28;20211;-82
2023/05/29 04:08:15;;;;;;;6.73;5.20;;;14.80;99.90;;;;;;5059745;28;20174;-82
2023/05/29 04:10:41;;;;;;;8.60;5.40;;;14.80;99.90;;;;;;5071432;28;20195;-83
2023/05/29 04:13:07;;;;;;;6.43;5.47;;;14.80;99.90;;;;;;5072524;28;20207;-80
2023/05/29 04:15:33;;;;;;;6.47;4.87;;;14.90;99.90;;;;;;5056898;28;20241;-81
2023/05/29 04:17:59;;;;;;;5.33;4.93;;;15.00;99.90;;;;;;5057047;28;20553;-79
2023/05/29 04:20:25;;;;;;;6.70;5.30;;;15.00;99.90;;;;;;5074861;28;20538;-80
2023/05/29 04:22:51;;;;;;;6.53;5.37;;;15.00;99.90;;;;;;5076151;28;20274;-84
2023/05/29 04:25:17;;;;;;;6.47;5.37;;;15.00;99.90;;;;;;5076793;28;20206;-82
2023/05/29 04:27:48;;;;;;;8.10;5.70;;;15.00;99.90;;;;;;5058463;28;20549;-80
2023/05/29 04:30:15;;;;;;;7.07;5.93;;;15.00;99.90;;;;;;5074449;28;20546;-80
2023/05/29 04:32:41;;;;;;;5.90;5.20;;;15.10;99.90;;;;;;5056223;28;20179;-79
2023/05/29 04:35:07;;;;;;;5.70;5.10;;;15.10;99.90;;;;;;5074470;28;20654;-79
2023/05/29 04:37:37;;;;;;;6.87;5.53;;;15.20;99.90;;;;;;5056523;28;20707;-79
2023/05/29 04:40:10;;;;;;;6.73;5.10;;;15.20;99.90;;;;;;5056711;28;20194;-78
2023/05/29 04:42:42;;;;;;;5.63;5.07;;;15.30;99.90;;;;;;5065494;28;20171;-79
2023/05/29 04:45:10;;;;;;;7.17;5.33;;;15.20;99.90;;;;;;5096513;28;20201;-78
2023/05/29 04:47:42;;;;;;;5.60;5.00;;;15.30;99.90;;;;;;5071455;28;20190;-80
2023/05/29 04:50:11;;;;;;;9.00;5.53;;;15.30;99.90;;;;;;5077375;28;20156;-81
2023/05/29 04:52:38;;;;;;;6.23;5.13;;;15.40;99.90;;;;;;5058433;28;20180;-80
2023/05/29 04:55:05;;;;;;;10.90;5.03;;;15.50;99.90;;;;;;5056230;28;20606;-79
2023/05/29 04:57:31;;;;;;;5.10;4.60;;;15.50;99.90;;;;;;5055729;28;20176;-80
2023/05/29 04:59:57;;;;;;;7.43;5.10;;;15.60;99.90;;;;;;5073487;28;20226;-80
2023/05/29 05:02:22;;;;;;;5.43;4.93;;;15.60;99.90;;;;;;5075194;28;20172;-80
2023/05/29 05:04:48;;;;;;;7.10;5.07;;;15.60;99.90;;;;;;5083163;28;20207;-80
2023/05/29 05:07:15;;;;;;;6.47;4.67;;;15.60;99.90;;;;;;5086667;28;20183;-79
2023/05/29 05:09:42;;;;;;;6.80;5.33;;;15.60;99.90;;;;;;5057226;28;20263;-82
2023/05/29 05:12:07;;;;;;;8.87;5.00;;;15.60;99.90;;;;;;5074406;28;20188;-82
2023/05/29 05:14:34;;;;;;;7.07;5.33;;;15.70;99.90;;;;;;5061501;28;20190;-81
2023/05/29 05:17:00;;;;;;;7.57;5.43;;;15.60;99.90;;;;;;5076077;28;20183;-81
2023/05/29 05:19:26;;;;;;;6.13;5.23;;;15.60;99.90;;;;;;5056622;28;20189;-81
2023/05/29 05:21:52;;;;;;;7.10;4.77;;;15.70;99.90;;;;;;5079609;28;20170;-82
2023/05/29 05:24:17;;;;;;;5.17;4.57;;;15.70;99.90;;;;;;5091341;28;20237;-82
2023/05/29 05:26:43;;;;;;;6.00;4.90;;;15.80;99.90;;;;;;5072948;28;20233;-81
2023/05/29 05:29:09;;;;;;;6.80;5.40;;;15.80;99.90;;;;;;5073540;28;20708;-79
2023/05/29 05:31:34;;;;;;;5.47;4.97;;;15.90;99.90;;;;;;5072947;28;20175;-81
2023/05/29 05:34:00;;;;;;;6.20;4.80;;;16.00;99.90;;;;;;5072981;28;20172;-81
2023/05/29 05:36:26;;;;;;;5.50;5.00;;;16.00;99.90;;;;;;5055511;28;20270;-80
2023/05/29 05:38:51;;;;;;;6.60;5.03;;;16.00;99.90;;;;;;5056555;28;20168;-81
2023/05/29 05:41:17;;;;;;;7.77;5.07;;;16.00;99.90;;;;;;5074216;28;20176;-81
2023/05/29 05:43:43;;;;;;;5.80;4.97;;;16.10;99.90;;;;;;5073425;28;20171;-81
2023/05/29 05:46:08;;;;;;;5.17;4.67;;;16.20;99.90;;;;;;5087836;28;20215;-81
2023/05/29 05:48:34;;;;;;;6.03;5.03;;;16.30;99.90;;;;;;5059201;28;20287;-82
2023/05/29 05:51:00;;;;;;;6.43;5.00;;;16.50;99.90;;;;;;5072892;28;20173;-80
2023/05/29 05:53:26;;;;;;;6.27;4.50;;;16.50;99.90;;;;;;5054822;28;20185;-78
2023/05/29 05:55:51;;;;;;;7.37;4.60;;;16.50;99.90;;;;;;5054750;28;20233;-79
2023/05/29 05:58:17;;;;;;;5.57;4.73;;;16.60;99.90;;;;;;5055522;28;20202;-80
2023/05/29 06:00:43;;;;;;;4.67;4.27;;;16.60;99.90;;;;;;5055107;28;20179;-79
2023/05/29 06:03:08;;;;;;;5.80;5.20;;;16.70;99.90;;;;;;5072761;28;20186;-81
2023/05/29 06:05:36;;;;;;;5.33;4.83;;;16.70;99.90;;;;;;5076182;28;20222;-78
2023/05/29 06:08:02;;;;;;;7.93;4.87;;;16.80;99.90;;;;;;5084231;28;20171;-79
2023/05/29 06:10:27;;;;;;;6.37;4.87;;;16.90;99.90;;;;;;5074198;28;20169;-78
2023/05/29 06:12:53;;;;;;;7.60;4.93;;;17.10;99.90;;;;;;5054617;28;20532;-80
2023/05/29 06:15:19;;;;;;;8.30;4.30;;;17.10;99.90;;;;;;5054293;28;20645;-81
2023/05/29 06:17:45;;;;;;;5.57;5.07;;;17.30;99.90;;;;;;5072416;28;20215;-77
2023/05/29 06:20:11;;;;;;;5.10;4.47;;;17.40;99.90;;;;;;5072601;28;20171;-79
2023/05/29 06:22:37;;;;;;;5.97;4.57;;;17.60;99.90;;;;;;5072544;28;20169;-80
2023/05/29 06:25:04;;;;;;;7.37;5.30;;;17.60;99.90;;;;;;5072547;28;20228;-80
2023/05/29 06:27:30;;;;;;;5.37;4.13;;;17.70;99.90;;;;;;5073165;28;20204;-79
2023/05/29 06:29:56;;;;;;;4.83;4.33;;;17.80;99.90;;;;;;5072736;28;20170;-77
2023/05/29 06:32:22;;;;;;;4.70;4.30;;;17.80;99.90;;;;;;5072902;28;20179;-80
2023/05/29 06:34:47;;;;;;;5.67;4.77;;;18.00;99.90;;;;;;5059868;28;20181;-80
2023/05/29 06:37:13;;;;;;;5.27;4.60;;;18.10;99.90;;;;;;5088581;28;20249;-80
2023/05/29 06:39:41;;;;;;;5.73;4.80;;;18.10;99.90;;;;;;5074283;28;20290;-81
2023/05/29 06:42:08;;;;;;;5.37;4.80;;;18.10;99.90;;;;;;5077768;28;20191;-77
2023/05/29 06:44:34;;;;;;;5.53;4.70;;;18.20;99.90;;;;;;5075409;28;20252;-78
2023/05/29 06:46:59;;;;;;;5.90;4.67;;;18.10;99.90;;;;;;5081201;28;20190;-76
2023/05/29 06:49:25;;;;;;;4.60;4.20;;;18.20;99.90;;;;;;5082321;28;20597;-77
2023/05/29 06:51:51;;;;;;;4.30;3.90;;;18.20;99.90;;;;;;5055437;28;20179;-79
2023/05/29 06:54:17;;;;;;;4.90;4.50;;;18.30;99.90;;;;;;5074097;28;20199;-80
2023/05/29 06:56:42;;;;;;;5.70;4.33;;;18.40;99.90;;;;;;5077510;28;20229;-78
2023/05/29 06:59:08;;;;;;;4.60;4.20;;;18.40;99.90;;;;;;5075268;28;20167;-79
2023/05/29 07:01:34;;;;;;;5.93;4.20;;;18.40;99.90;;;;;;5086611;28;20183;-80
2023/05/29 07:04:00;;;;;;;5.20;4.70;;;18.40;99.90;;;;;;5080703;28;20302;-79
2023/05/29 07:06:26;;;;;;;4.60;4.10;;;18.50;99.90;;;;;;5088426;28;20217;-79
2023/05/29 07:08:51;;;;;;;4.10;3.73;;;18.60;99.90;;;;;;5082495;28;20615;-80
2023/05/29 07:11:17;;;;;;;4.37;3.97;;;18.70;99.90;;;;;;5076269;28;20228;-80
2023/05/29 07:13:43;;;;;;;5.20;4.23;;;18.70;99.90;;;;;;5078112;28;20603;-80
2023/05/29 07:16:08;;;;;;;4.30;3.90;;;18.70;99.90;;;;;;5079086;28;20561;-79
2023/05/29 07:18:34;;;;;;;4.37;3.97;;;18.80;99.90;;;;;;5060376;28;20203;-80
2023/05/29 07:21:00;;;;;;;4.57;4.17;;;18.90;99.90;;;;;;5076583;28;20206;-80
2023/05/29 07:23:26;;;;;;;4.20;3.80;;;19.10;99.90;;;;;;5076267;28;20175;-78
2023/05/29 07:25:52;;;;;;;4.60;3.93;;;19.20;99.90;;;;;;5076140;28;20203;-78
2023/05/29 07:28:18;;;;;;;5.30;4.37;;;19.40;99.90;;;;;;5076286;28;20221;-79
2023/05/29 07:30:43;;;;;;;4.80;3.97;;;19.50;99.90;;;;;;5076609;28;20681;-78
2023/05/29 07:33:09;;;;;;;4.60;4.20;;;19.60;99.90;;;;;;5057849;28;20183;-80
2023/05/29 07:35:35;;;;;;;6.20;4.13;;;19.90;99.90;;;;;;5075832;28;20171;-76
2023/05/29 07:38:01;;;;;;;4.83;4.10;;;20.00;99.90;;;;;;5076884;28;20179;-77
2023/05/29 07:40:27;;;;;;;4.13;3.73;;;20.10;99.80;;;;;;5087559;28;20175;-78
2023/05/29 07:42:52;;;;;;;4.30;3.90;;;20.10;99.30;;;;;;5080038;28;20191;-79
2023/05/29 07:45:18;;;;;;;6.67;4.37;;;20.10;99.10;;;;;;5075417;28;20214;-78
2023/05/29 07:47:44;;;;;;;4.10;3.70;;;20.20;98.00;;;;;;5075344;28;20235;-78
2023/05/29 07:50:11;;;;;;;4.73;3.90;;;20.40;98.20;;;;;;5075503;28;20175;-78
2023/05/29 07:52:37;;;;;;;4.87;4.10;;;20.30;97.10;;;;;;5075296;28;20186;-77
2023/05/29 07:55:03;;;;;;;5.97;4.13;;;20.50;97.50;;;;;;5074948;28;20533;-79
2023/05/29 07:57:28;;;;;;;4.67;3.93;;;20.60;97.40;;;;;;5075250;28;20179;-78
2023/05/29 07:59:54;;;;;;;4.57;3.53;;;20.70;97.60;;;;;;5077460;28;20171;-79
2023/05/29 08:02:20;;;;;;;5.53;4.47;;;20.90;97.50;;;;;;5081798;28;20175;-80
2023/05/29 08:04:47;;;;;;;5.20;4.40;;;20.90;97.30;;;;;;5077408;28;20264;-79
2023/05/29 08:07:13;;;;;;;7.53;4.23;;;21.10;97.40;;;;;;5073915;28;20219;-77
2023/05/29 08:09:38;;;;;;;5.07;4.37;;;21.10;97.30;;;;;;5075315;28;20171;-78
2023/05/29 08:12:05;;;;;;;5.10;4.60;;;21.30;96.90;;;;;;5057130;28;20194;-77
2023/05/29 08:14:31;;;;;;;4.40;4.00;;;21.20;96.60;;;;;;5075492;28;20553;-78
2023/05/29 08:16:57;;;;;;;6.73;4.30;;;21.10;98.10;;;;;;5075743;28;20166;-79
2023/05/29 08:19:23;;;;;;;4.57;4.00;;;21.00;96.10;;;;;;5076898;28;20252;-76
2023/05/29 08:21:49;;;;;;;6.57;4.37;;;21.30;96.60;;;;;;5080461;28;20604;-78
2023/05/29 08:24:15;;;;;;;4.27;3.97;;;21.40;96.90;;;;;;5088943;28;20183;-78
2023/05/29 08:26:43;;;;;;;4.43;4.03;;;21.50;96.80;;;;;;5085433;28;20199;-76
2023/05/29 08:29:09;;;;;;;9.40;4.50;;;21.50;97.20;;;;;;5089773;28;20198;-80
2023/05/29 08:31:35;;;;;;;8.47;4.70;;;21.50;96.50;;;;;;5092853;28;20190;-78
2023/05/29 08:34:01;;;;;;;6.27;4.20;;;21.60;96.30;;;;;;5083457;28;20171;-78
2023/05/29 08:36:27;;;;;;;5.97;4.03;;;21.80;96.30;;;;;;5094164;28;20257;-77
2023/05/29 08:38:53;;;;;;;5.83;4.23;;;22.10;95.90;;;;;;5077653;28;20179;-79
2023/05/29 08:41:32;;;;;;;4.30;3.90;;;22.20;95.70;;;;;;5075345;28;20167;-80
2023/05/29 08:44:02;;;;;;;6.33;4.17;;;22.50;95.70;;;;;;5056318;28;20182;-79
2023/05/29 08:46:28;;;;;;;4.00;3.70;;;22.60;96.40;;;;;;5089555;28;20199;-79
2023/05/29 08:48:58;;;;;;;4.85;4.30;;;22.50;95.20;;;;;;5082742;28;20243;-80
2023/05/29 08:51:36;;;;;;;4.77;4.03;;;22.40;95.90;;;;;;5058387;28;20198;-81
2023/05/29 08:54:02;;;;;;;4.53;4.23;;;22.60;95.50;;;;;;5058497;28;20182;-84
2023/05/29 08:56:29;;;;;;;6.32;4.00;;;22.90;95.40;;;;;;5074449;28;20268;-80
2023/05/29 08:58:55;;;;;;;5.38;4.40;;;22.90;95.50;;;;;;5056090;28;20244;-80
2023/05/29 09:01:22;;;;;;;4.30;3.90;;;23.00;95.10;;;;;;5076692;28;20182;-80
2023/05/29 09:03:48;;;;;;;5.15;4.13;;;23.10;94.50;;;;;;5076644;28;20706;-80
2023/05/29 09:06:14;;;;;;;5.15;4.00;;;22.90;94.50;;;;;;5067057;28;20289;-82
2023/05/29 09:08:39;;;;;;;5.53;4.55;;;22.70;93.80;;;;;;5078961;28;20175;-81
2023/05/29 09:11:05;;;;;;;5.22;4.10;;;22.70;94.10;;;;;;5074828;28;20171;-81
2023/05/29 09:13:31;;;;;;;4.37;4.07;;;22.90;94.00;;;;;;5073867;28;20571;-81
2023/05/29 09:16:03;;;;;;;6.38;4.07;;;23.10;93.80;;;;;;5055891;28;20183;-80
2023/05/29 09:18:32;;;;;;;4.70;4.10;;;22.90;93.30;;;;;;5074345;28;20635;-80
2023/05/29 09:20:58;;;;;;;4.97;4.00;;;23.10;93.80;;;;;;5074605;28;20197;-81
2023/05/29 09:23:26;;;;;;;7.57;5.97;;;23.30;93.80;;;;;;5055889;28;20262;-79
2023/05/29 09:25:53;;;;;;;8.55;6.65;;;23.40;93.50;;;;;;5083979;28;20232;-80
2023/05/29 09:28:23;;;;;;;15.13;9.73;;;23.60;93.70;;;;;;5092785;28;20167;-78
2023/05/29 09:30:49;;;;;;;5.07;4.40;;;23.70;92.90;;;;;;5074425;28;20163;-81
2023/05/29 09:33:18;;;;;;;5.22;4.72;;;23.80;93.00;;;;;;5073912;28;20250;-84
2023/05/29 09:35:48;;;;;;;6.32;4.72;;;23.90;93.60;;;;;;5073049;28;20220;-82
2023/05/29 09:38:16;;;;;;;4.65;4.25;;;23.90;93.80;;;;;;5074188;28;20167;-81
2023/05/29 09:40:45;;;;;;;4.45;4.03;;;24.10;93.70;;;;;;5078815;28;20174;-80
2023/05/29 09:43:19;;;;;;;4.18;3.78;;;24.10;92.40;;;;;;5073374;28;20163;-79
2023/05/29 09:45:50;;;;;;;6.43;4.40;;;24.20;92.20;;;;;;5072686;28;20277;-81
2023/05/29 09:48:17;;;;;;;4.40;4.00;;;24.20;92.90;;;;;;5073944;28;20186;-80
2023/05/29 09:50:47;;;;;;;4.75;4.18;;;24.20;92.20;;;;;;5074410;28;20168;-77
2023/05/29 09:53:24;;;;;;;4.25;3.95;;;24.00;91.20;;;;;;5055333;28;20587;-79
2023/05/29 09:55:50;;;;;;;5.78;4.43;;;23.80;91.30;;;;;;5054816;28;20182;-81
2023/05/29 09:58:23;;;;;;;4.55;4.15;;;23.60;91.00;;;;;;5058169;28;20635;-80
2023/05/29 10:00:51;;;;;;;4.70;4.28;;;23.30;91.20;;;;;;5082988;28;20163;-82
2023/05/29 10:03:17;;;;;;;4.78;4.38;;;23.20;92.10;;;;;;5082396;28;20666;-79
2023/05/29 10:05:50;;;;;;;4.38;4.00;;;23.40;92.90;;;;;;5073249;28;20196;-79
2023/05/29 10:08:18;;;;;;;4.72;4.32;;;23.50;92.50;;;;;;5073816;28;20225;-81
2023/05/29 10:10:47;;;;;;;4.47;4.07;;;23.60;92.40;;;;;;5059901;28;20183;-79
2023/05/29 10:13:14;;;;;;;4.45;4.15;;;23.80;92.70;;;;;;5087207;28;20224;-79
2023/05/29 10:15:45;;;;;;;4.60;3.92;;;24.00;91.60;;;;;;5081619;28;20194;-82
2023/05/29 10:18:20;;;;;;;5.88;4.47;;;23.80;90.70;;;;;;5060945;28;20179;-81
2023/05/29 10:20:51;;;;;;;4.90;4.50;;;23.80;91.80;;;;;;5092159;28;20243;-81
2023/05/29 10:23:22;;;;;;;4.25;3.95;;;24.00;92.40;;;;;;5078504;28;20171;-81
2023/05/29 10:25:52;;;;;;;5.07;3.83;;;24.00;92.00;;;;;;5097561;28;20219;-81
2023/05/29 10:28:18;;;;;;;5.85;4.78;;;23.40;91.10;;;;;;5079334;28;20159;-80
2023/05/29 10:30:55;;;;;;;5.32;4.80;;;24.10;92.10;;;;;;5089485;28;20244;-81
2023/05/29 10:33:45;;;;;;;4.65;4.18;;;24.30;91.20;;;;;;5059744;28;20189;-82
2023/05/29 10:38:40;;;;;;;4.68;4.28;;;24.50;91.20;;;;;;5059807;22;20590;-81
2023/05/29 10:41:27;;;;;;;5.18;4.68;;;24.60;90.40;;;;;;5056602;28;20554;-82
2023/05/29 10:43:57;;;;;;;6.35;4.30;;;24.70;90.50;;;;;;5034544;28;20183;-81
2023/05/29 10:46:48;;;;;;;5.80;4.45;;;24.70;89.90;;;;;;5035309;28;20218;-82
2023/05/29 10:49:17;;;;;;;5.05;4.57;;;24.60;90.10;;;;;;5042904;28;20187;-80
2023/05/29 10:51:43;;;;;;;5.80;4.15;;;24.50;90.20;;;;;;5052766;28;20168;-82
2023/05/29 10:54:10;;;;;;;6.63;3.85;;;24.60;90.10;;;;;;5052930;28;20183;-80
2023/05/29 10:56:36;;;;;;;5.60;4.38;;;24.60;90.40;;;;;;5055873;28;20180;-83
2023/05/29 10:59:02;;;;;;;5.72;4.30;;;24.50;88.40;;;;;;5066021;28;20218;-82
2023/05/29 11:01:31;;;;;;;6.45;4.20;;;24.40;89.60;;;;;;5057221;28;20255;-80
2023/05/29 11:04:15;;;;;;;5.18;4.55;;;24.10;90.50;;;;;;5062158;28;20655;-81
2023/05/29 11:06:41;;;;;;;8.68;4.78;;;24.20;90.60;;;;;;5056614;28;20290;-81
2023/05/29 11:09:37;;;;;;;5.90;4.20;;;24.40;90.10;;;;;;5059311;28;20174;-81
2023/05/29 11:12:32;;;;;;;4.93;4.07;;;24.60;90.40;;;;;;5068427;28;20243;-82
2023/05/29 11:15:13;;;;;;;5.05;4.00;;;24.40;87.50;;;;;;5057679;28;20160;-81
2023/05/29 11:17:39;;;;;;;5.32;4.82;;;24.40;89.40;;;;;;5055195;28;20153;-82
2023/05/29 11:20:06;;;;;;;5.20;4.10;;;24.30;90.50;;;;;;5053495;28;20305;-81
2023/05/29 11:22:53;;;;;;;4.88;4.47;;;24.40;90.00;;;;;;5053677;28;20856;-83
2023/05/29 11:25:20;;;;;;;4.80;4.35;;;24.60;86.40;;;;;;5037419;28;20604;-81
2023/05/29 11:27:46;;;;;;;5.05;4.55;;;24.70;85.00;;;;;;5042075;28;20180;-80
2023/05/29 11:30:12;;;;;;;4.93;4.43;;;24.80;84.00;;;;;;5055064;28;20176;-81
2023/05/29 11:32:40;;;;;;;5.15;4.45;;;24.80;85.10;;;;;;5053672;28;20636;-82
2023/05/29 11:35:11;;;;;;;4.55;4.15;;;24.90;84.10;;;;;;5037322;28;20647;-81
2023/05/29 11:37:47;;;;;;;6.03;4.22;;;24.80;82.80;;;;;;5051736;28;20208;-82
2023/05/29 11:40:15;;;;;;;4.68;4.25;;;25.00;82.10;;;;;;5057962;28;20164;-81
2023/05/29 11:42:46;;;;;;;4.40;4.10;;;24.90;83.20;;;;;;5058181;28;20204;-81
2023/05/29 11:45:19;;;;;;;4.47;4.07;;;24.90;81.10;;;;;;5039374;28;20670;-81
2023/05/29 11:48:03;;;;;;;5.03;4.45;;;24.80;82.00;;;;;;5062992;28;20171;-81
2023/05/29 11:50:36;;;;;;;4.78;4.25;;;24.70;80.90;;;;;;5049395;28;20176;-81
2023/05/29 11:53:01;;;;;;;5.25;4.70;;;24.50;80.90;;;;;;5037666;28;20176;-81
2023/05/29 11:55:28;;;;;;;5.88;4.57;;;24.40;81.00;;;;;;5039640;28;20267;-80
2023/05/29 11:57:59;;;;;;;4.82;4.40;;;24.20;80.60;;;;;;5067159;28;20199;-82
2023/05/29 12:00:26;;;;;;;4.47;4.05;;;24.30;81.70;;;;;;5067443;28;20183;-81
2023/05/29 12:02:52;;;;;;;5.32;4.55;;;24.20;81.40;;;;;;5057190;28;20175;-78
2023/05/29 12:05:19;;;;;;;5.32;4.82;;;24.30;81.30;;;;;;5037215;28;20266;-83
2023/05/29 12:07:52;;;;;;;5.53;4.72;;;24.50;81.00;;;;;;5055111;28;20175;-81
2023/05/29 12:10:20;;;;;;;4.75;4.30;;;24.60;79.50;;;;;;5056228;28;20313;-80
2023/05/29 12:13:02;;;;;;;4.97;4.55;;;24.60;80.30;;;;;;5055274;28;20660;-80
2023/05/29 12:15:28;;;;;;;5.75;4.63;;;24.90;81.40;;;;;;5061772;28;20164;-82
2023/05/29 12:17:55;;;;;;;4.38;4.07;;;24.80;79.70;;;;;;5056485;28;20231;-78
2023/05/29 12:20:28;;;;;;;5.95;4.00;;;24.70;76.50;;;;;;5054287;28;20187;-81
2023/05/29 12:23:00;;;;;;;4.40;4.00;;;24.40;75.50;;;;;;5054755;28;20277;-80
2023/05/29 12:25:27;;;;;;;4.45;3.83;;;24.10;76.60;;;;;;5054590;28;20219;-82
2023/05/29 12:27:56;;;;;;;4.45;3.97;;;24.30;78.80;;;;;;5054706;28;20696;-82
2023/05/29 12:30:22;;;;;;;6.88;4.15;;;24.60;79.20;;;;;;5054879;28;20265;-80
2023/05/29 12:32:52;;;;;;;4.00;3.70;;;24.70;78.00;;;;;;5055087;28;20171;-81
2023/05/29 12:35:19;;;;;;;4.65;3.83;;;24.90;76.70;;;;;;5054497;28;20187;-82
2023/05/29 12:37:47;;;;;;;4.40;4.00;;;24.90;76.60;;;;;;5054270;28;20661;-81
2023/05/29 12:40:26;;;;;;;5.10;4.30;;;24.90;75.90;;;;;;5054784;28;20172;-80
2023/05/29 12:43:03;;;;;;;4.45;4.00;;;25.00;75.90;;;;;;5054884;28;20463;-81
2023/05/29 12:45:31;;;;;;;4.45;4.03;;;25.00;76.30;;;;;;5054557;28;20547;-81
2023/05/29 12:48:01;;;;;;;4.55;3.92;;;25.00;75.80;;;;;;5036898;28;20661;-78
2023/05/29 12:50:28;;;;;;;5.45;4.13;;;24.90;75.00;;;;;;5055273;28;20175;-80
2023/05/29 12:53:05;;;;;;;4.30;4.00;;;25.00;73.80;;;;;;5053774;28;20172;-81